sensor_id;sensor_type;location;lat;lon;timestamp;P1;durP1;ratioP1;P2;durP2;ratioP2
41689;SDS011;27372;42.658;23.256;2024-03-02T00:00:06;35.47;;;18.08;;
41689;SDS011;27372;42.658;23.256;2024-03-02T00:02:42;38.25;;;19.02;;
41689;SDS011;27372;42.658;23.256;2024-03-02T00:05:11;35.92;;;18.50;;
41689;SDS011;27372;42.658;23.256;2024-03-02T00:07:41;35.13;;;18.75;;
41689;SDS011;27372;42.658;23.256;2024-03-02T00:10:08;34.40;;;18.42;;
41689;SDS011;27372;42.658;23.256;2024-03-02T00:12:38;35.45;;;18.98;;
41689;SDS011;27372;42.658;23.256;2024-03-02T00:15:05;32.83;;;17.30;;
41689;SDS011;27372;42.658;23.256;2024-03-02T00:17:42;36.83;;;19.02;;
41689;SDS011;27372;42.658;23.256;2024-03-02T00:20:08;29.75;;;15.98;;
41689;SDS011;27372;42.658;23.256;2024-03-02T00:22:35;30.50;;;16.45;;
41689;SDS011;27372;42.658;23.256;2024-03-02T00:25:02;29.98;;;16.17;;
41689;SDS011;27372;42.658;23.256;2024-03-02T00:27:28;33.75;;;17.00;;
41689;SDS011;27372;42.658;23.256;2024-03-02T00:29:54;29.00;;;15.43;;
41689;SDS011;27372;42.658;23.256;2024-03-02T00:32:21;30.45;;;15.50;;
41689;SDS011;27372;42.658;23.256;2024-03-02T00:34:47;35.10;;;17.52;;
41689;SDS011;27372;42.658;23.256;2024-03-02T00:37:12;31.77;;;17.02;;
41689;SDS011;27372;42.658;23.256;2024-03-02T00:39:39;29.45;;;16.13;;
41689;SDS011;27372;42.658;23.256;2024-03-02T00:42:05;33.85;;;17.98;;
41689;SDS011;27372;42.658;23.256;2024-03-02T00:44:30;34.47;;;17.77;;
41689;SDS011;27372;42.658;23.256;2024-03-02T00:47:00;35.65;;;19.00;;
41689;SDS011;27372;42.658;23.256;2024-03-02T00:49:26;30.75;;;17.33;;
41689;SDS011;27372;42.658;23.256;2024-03-02T00:51:53;35.25;;;18.83;;
41689;SDS011;27372;42.658;23.256;2024-03-02T00:54:20;34.45;;;18.40;;
41689;SDS011;27372;42.658;23.256;2024-03-02T00:56:51;33.58;;;18.10;;
41689;SDS011;27372;42.658;23.256;2024-03-02T00:59:20;36.78;;;18.35;;
41689;SDS011;27372;42.658;23.256;2024-03-02T01:01:47;37.17;;;18.77;;
41689;SDS011;27372;42.658;23.256;2024-03-02T01:04:14;38.03;;;18.42;;
41689;SDS011;27372;42.658;23.256;2024-03-02T01:06:39;34.08;;;18.17;;
41689;SDS011;27372;42.658;23.256;2024-03-02T01:09:04;32.70;;;17.70;;
41689;SDS011;27372;42.658;23.256;2024-03-02T01:11:30;38.92;;;19.75;;
41689;SDS011;27372;42.658;23.256;2024-03-02T01:13:55;37.40;;;18.83;;
41689;SDS011;27372;42.658;23.256;2024-03-02T01:16:21;41.33;;;20.73;;
41689;SDS011;27372;42.658;23.256;2024-03-02T01:18:46;35.72;;;19.08;;
41689;SDS011;27372;42.658;23.256;2024-03-02T01:21:11;34.65;;;18.77;;
41689;SDS011;27372;42.658;23.256;2024-03-02T01:23:37;36.92;;;17.67;;
41689;SDS011;27372;42.658;23.256;2024-03-02T01:26:03;35.53;;;18.20;;
41689;SDS011;27372;42.658;23.256;2024-03-02T01:28:28;36.10;;;18.85;;
41689;SDS011;27372;42.658;23.256;2024-03-02T01:30:54;37.03;;;18.58;;
41689;SDS011;27372;42.658;23.256;2024-03-02T01:33:19;32.38;;;18.38;;
41689;SDS011;27372;42.658;23.256;2024-03-02T01:35:45;35.53;;;17.73;;
41689;SDS011;27372;42.658;23.256;2024-03-02T01:38:10;30.52;;;17.45;;
41689;SDS011;27372;42.658;23.256;2024-03-02T01:40:36;32.90;;;17.75;;
41689;SDS011;27372;42.658;23.256;2024-03-02T01:43:03;32.00;;;18.27;;
41689;SDS011;27372;42.658;23.256;2024-03-02T01:45:29;33.70;;;18.13;;
41689;SDS011;27372;42.658;23.256;2024-03-02T01:47:55;36.22;;;19.20;;
41689;SDS011;27372;42.658;23.256;2024-03-02T01:50:25;34.70;;;18.48;;
41689;SDS011;27372;42.658;23.256;2024-03-02T01:52:51;33.08;;;17.77;;
41689;SDS011;27372;42.658;23.256;2024-03-02T01:55:17;34.53;;;18.58;;
41689;SDS011;27372;42.658;23.256;2024-03-02T01:57:43;32.33;;;17.50;;
41689;SDS011;27372;42.658;23.256;2024-03-02T02:00:10;29.60;;;17.08;;
41689;SDS011;27372;42.658;23.256;2024-03-02T02:02:36;33.92;;;18.40;;
41689;SDS011;27372;42.658;23.256;2024-03-02T02:05:01;36.00;;;19.35;;
41689;SDS011;27372;42.658;23.256;2024-03-02T02:07:26;34.13;;;18.27;;
41689;SDS011;27372;42.658;23.256;2024-03-02T02:09:52;36.85;;;19.02;;
41689;SDS011;27372;42.658;23.256;2024-03-02T02:12:17;34.75;;;18.73;;
41689;SDS011;27372;42.658;23.256;2024-03-02T02:14:49;33.22;;;17.55;;
41689;SDS011;27372;42.658;23.256;2024-03-02T02:17:17;35.75;;;19.00;;
41689;SDS011;27372;42.658;23.256;2024-03-02T02:19:43;36.95;;;18.40;;
41689;SDS011;27372;42.658;23.256;2024-03-02T02:22:08;32.15;;;18.13;;
41689;SDS011;27372;42.658;23.256;2024-03-02T02:24:35;36.88;;;19.23;;
41689;SDS011;27372;42.658;23.256;2024-03-02T02:27:00;33.85;;;19.05;;
41689;SDS011;27372;42.658;23.256;2024-03-02T02:29:25;32.15;;;17.77;;
41689;SDS011;27372;42.658;23.256;2024-03-02T02:31:51;32.25;;;17.80;;
41689;SDS011;27372;42.658;23.256;2024-03-02T02:34:16;33.30;;;17.10;;
41689;SDS011;27372;42.658;23.256;2024-03-02T02:36:42;35.00;;;18.02;;
41689;SDS011;27372;42.658;23.256;2024-03-02T02:39:09;33.65;;;17.58;;
41689;SDS011;27372;42.658;23.256;2024-03-02T02:41:38;35.88;;;17.27;;
41689;SDS011;27372;42.658;23.256;2024-03-02T02:44:03;29.75;;;17.27;;
41689;SDS011;27372;42.658;23.256;2024-03-02T02:46:29;35.08;;;18.35;;
41689;SDS011;27372;42.658;23.256;2024-03-02T02:48:55;32.53;;;17.63;;
41689;SDS011;27372;42.658;23.256;2024-03-02T02:51:20;31.08;;;17.42;;
41689;SDS011;27372;42.658;23.256;2024-03-02T02:53:45;31.73;;;17.95;;
41689;SDS011;27372;42.658;23.256;2024-03-02T02:56:11;31.70;;;17.85;;
41689;SDS011;27372;42.658;23.256;2024-03-02T02:58:37;36.10;;;18.42;;
41689;SDS011;27372;42.658;23.256;2024-03-02T03:01:02;33.80;;;17.67;;
41689;SDS011;27372;42.658;23.256;2024-03-02T03:03:28;30.88;;;17.17;;
41689;SDS011;27372;42.658;23.256;2024-03-02T03:05:54;30.52;;;17.15;;
41689;SDS011;27372;42.658;23.256;2024-03-02T03:08:19;32.03;;;17.60;;
41689;SDS011;27372;42.658;23.256;2024-03-02T03:10:45;33.10;;;18.42;;
41689;SDS011;27372;42.658;23.256;2024-03-02T03:13:10;38.05;;;20.65;;
41689;SDS011;27372;42.658;23.256;2024-03-02T03:15:36;39.38;;;20.73;;
41689;SDS011;27372;42.658;23.256;2024-03-02T03:18:01;38.17;;;20.73;;
41689;SDS011;27372;42.658;23.256;2024-03-02T03:20:28;37.03;;;20.77;;
41689;SDS011;27372;42.658;23.256;2024-03-02T03:22:54;40.53;;;20.77;;
41689;SDS011;27372;42.658;23.256;2024-03-02T03:25:19;36.42;;;20.55;;
41689;SDS011;27372;42.658;23.256;2024-03-02T03:27:45;37.20;;;20.45;;
41689;SDS011;27372;42.658;23.256;2024-03-02T03:30:11;37.95;;;21.30;;
41689;SDS011;27372;42.658;23.256;2024-03-02T03:32:36;40.47;;;21.23;;
41689;SDS011;27372;42.658;23.256;2024-03-02T03:35:02;36.25;;;20.52;;
41689;SDS011;27372;42.658;23.256;2024-03-02T03:37:28;36.45;;;20.73;;
41689;SDS011;27372;42.658;23.256;2024-03-02T03:39:58;42.10;;;21.25;;
41689;SDS011;27372;42.658;23.256;2024-03-02T03:42:24;45.33;;;21.67;;
41689;SDS011;27372;42.658;23.256;2024-03-02T03:44:49;41.33;;;22.52;;
41689;SDS011;27372;42.658;23.256;2024-03-02T03:47:15;44.50;;;22.90;;
41689;SDS011;27372;42.658;23.256;2024-03-02T03:49:40;43.10;;;22.08;;
41689;SDS011;27372;42.658;23.256;2024-03-02T03:52:06;41.53;;;22.88;;
41689;SDS011;27372;42.658;23.256;2024-03-02T03:54:31;45.72;;;23.60;;
41689;SDS011;27372;42.658;23.256;2024-03-02T03:56:56;46.08;;;22.70;;
41689;SDS011;27372;42.658;23.256;2024-03-02T03:59:22;43.42;;;23.52;;
41689;SDS011;27372;42.658;23.256;2024-03-02T04:01:47;46.90;;;24.67;;
41689;SDS011;27372;42.658;23.256;2024-03-02T04:04:12;45.55;;;24.25;;
41689;SDS011;27372;42.658;23.256;2024-03-02T04:06:38;39.75;;;22.65;;
41689;SDS011;27372;42.658;23.256;2024-03-02T04:09:03;45.67;;;24.27;;
41689;SDS011;27372;42.658;23.256;2024-03-02T04:11:29;45.05;;;23.73;;
41689;SDS011;27372;42.658;23.256;2024-03-02T04:13:55;47.20;;;24.00;;
41689;SDS011;27372;42.658;23.256;2024-03-02T04:16:20;44.55;;;23.20;;
41689;SDS011;27372;42.658;23.256;2024-03-02T04:18:46;47.95;;;25.17;;
41689;SDS011;27372;42.658;23.256;2024-03-02T04:21:11;48.42;;;24.60;;
41689;SDS011;27372;42.658;23.256;2024-03-02T04:23:37;48.40;;;24.77;;
41689;SDS011;27372;42.658;23.256;2024-03-02T04:26:02;44.95;;;24.42;;
41689;SDS011;27372;42.658;23.256;2024-03-02T04:28:28;44.25;;;23.35;;
41689;SDS011;27372;42.658;23.256;2024-03-02T04:30:53;41.80;;;23.63;;
41689;SDS011;27372;42.658;23.256;2024-03-02T04:33:18;48.45;;;24.45;;
41689;SDS011;27372;42.658;23.256;2024-03-02T04:35:44;42.38;;;23.65;;
41689;SDS011;27372;42.658;23.256;2024-03-02T04:38:09;48.75;;;24.73;;
41689;SDS011;27372;42.658;23.256;2024-03-02T04:40:34;51.03;;;25.17;;
41689;SDS011;27372;42.658;23.256;2024-03-02T04:43:00;48.75;;;24.25;;
41689;SDS011;27372;42.658;23.256;2024-03-02T04:45:25;53.35;;;26.10;;
41689;SDS011;27372;42.658;23.256;2024-03-02T04:47:50;46.40;;;24.73;;
41689;SDS011;27372;42.658;23.256;2024-03-02T04:50:16;51.15;;;24.92;;
41689;SDS011;27372;42.658;23.256;2024-03-02T04:52:41;48.88;;;25.63;;
41689;SDS011;27372;42.658;23.256;2024-03-02T04:55:07;51.58;;;25.05;;
41689;SDS011;27372;42.658;23.256;2024-03-02T04:57:42;50.47;;;24.70;;
41689;SDS011;27372;42.658;23.256;2024-03-02T05:00:08;46.83;;;24.13;;
41689;SDS011;27372;42.658;23.256;2024-03-02T05:02:34;49.60;;;24.88;;
41689;SDS011;27372;42.658;23.256;2024-03-02T05:05:00;47.78;;;24.55;;
41689;SDS011;27372;42.658;23.256;2024-03-02T05:07:25;50.38;;;25.85;;
41689;SDS011;27372;42.658;23.256;2024-03-02T05:09:51;47.63;;;24.40;;
41689;SDS011;27372;42.658;23.256;2024-03-02T05:12:16;49.35;;;24.95;;
41689;SDS011;27372;42.658;23.256;2024-03-02T05:15:20;49.13;;;24.42;;
41689;SDS011;27372;42.658;23.256;2024-03-02T05:17:46;48.25;;;23.95;;
41689;SDS011;27372;42.658;23.256;2024-03-02T05:20:12;46.20;;;24.35;;
41689;SDS011;27372;42.658;23.256;2024-03-02T05:22:37;46.47;;;24.30;;
41689;SDS011;27372;42.658;23.256;2024-03-02T05:25:03;48.47;;;25.08;;
41689;SDS011;27372;42.658;23.256;2024-03-02T05:27:29;49.50;;;24.73;;
41689;SDS011;27372;42.658;23.256;2024-03-02T05:29:55;45.88;;;23.85;;
41689;SDS011;27372;42.658;23.256;2024-03-02T05:32:20;48.83;;;24.40;;
41689;SDS011;27372;42.658;23.256;2024-03-02T05:34:46;46.08;;;25.13;;
41689;SDS011;27372;42.658;23.256;2024-03-02T05:37:11;44.40;;;24.67;;
41689;SDS011;27372;42.658;23.256;2024-03-02T05:39:37;45.08;;;24.52;;
41689;SDS011;27372;42.658;23.256;2024-03-02T05:42:02;47.25;;;25.58;;
41689;SDS011;27372;42.658;23.256;2024-03-02T05:44:28;47.50;;;25.52;;
41689;SDS011;27372;42.658;23.256;2024-03-02T05:46:54;47.72;;;25.20;;
41689;SDS011;27372;42.658;23.256;2024-03-02T05:49:20;48.75;;;24.98;;
41689;SDS011;27372;42.658;23.256;2024-03-02T05:51:45;52.30;;;24.65;;
41689;SDS011;27372;42.658;23.256;2024-03-02T05:54:11;47.35;;;26.45;;
41689;SDS011;27372;42.658;23.256;2024-03-02T05:56:37;44.35;;;24.25;;
41689;SDS011;27372;42.658;23.256;2024-03-02T05:59:02;44.97;;;24.05;;
41689;SDS011;27372;42.658;23.256;2024-03-02T06:01:47;41.85;;;23.42;;
41689;SDS011;27372;42.658;23.256;2024-03-02T06:04:13;44.78;;;24.00;;
41689;SDS011;27372;42.658;23.256;2024-03-02T06:06:39;42.33;;;24.17;;
41689;SDS011;27372;42.658;23.256;2024-03-02T06:09:05;43.80;;;23.95;;
41689;SDS011;27372;42.658;23.256;2024-03-02T06:11:36;45.50;;;25.17;;
41689;SDS011;27372;42.658;23.256;2024-03-02T06:14:02;49.10;;;25.40;;
41689;SDS011;27372;42.658;23.256;2024-03-02T06:16:28;43.30;;;24.73;;
41689;SDS011;27372;42.658;23.256;2024-03-02T06:18:54;46.63;;;25.23;;
41689;SDS011;27372;42.658;23.256;2024-03-02T06:21:20;46.92;;;25.48;;
41689;SDS011;27372;42.658;23.256;2024-03-02T06:23:45;48.05;;;26.23;;
41689;SDS011;27372;42.658;23.256;2024-03-02T06:26:11;48.78;;;25.85;;
41689;SDS011;27372;42.658;23.256;2024-03-02T06:28:37;46.38;;;26.67;;
41689;SDS011;27372;42.658;23.256;2024-03-02T06:31:03;48.22;;;25.95;;
41689;SDS011;27372;42.658;23.256;2024-03-02T06:33:29;50.30;;;26.27;;
41689;SDS011;27372;42.658;23.256;2024-03-02T06:35:54;45.08;;;25.45;;
41689;SDS011;27372;42.658;23.256;2024-03-02T06:38:19;53.42;;;29.08;;
41689;SDS011;27372;42.658;23.256;2024-03-02T06:40:45;52.28;;;29.15;;
41689;SDS011;27372;42.658;23.256;2024-03-02T06:43:10;52.05;;;28.35;;
41689;SDS011;27372;42.658;23.256;2024-03-02T06:45:36;57.00;;;31.05;;
41689;SDS011;27372;42.658;23.256;2024-03-02T06:48:01;57.95;;;30.17;;
41689;SDS011;27372;42.658;23.256;2024-03-02T06:50:26;51.35;;;27.67;;
41689;SDS011;27372;42.658;23.256;2024-03-02T06:52:52;51.42;;;26.85;;
41689;SDS011;27372;42.658;23.256;2024-03-02T06:55:17;54.08;;;28.85;;
41689;SDS011;27372;42.658;23.256;2024-03-02T06:57:43;54.05;;;28.17;;
41689;SDS011;27372;42.658;23.256;2024-03-02T07:00:08;51.92;;;27.27;;
41689;SDS011;27372;42.658;23.256;2024-03-02T07:02:34;54.15;;;28.10;;
41689;SDS011;27372;42.658;23.256;2024-03-02T07:05:03;49.20;;;24.13;;
41689;SDS011;27372;42.658;23.256;2024-03-02T07:07:29;42.72;;;21.27;;
41689;SDS011;27372;42.658;23.256;2024-03-02T07:09:54;39.25;;;19.90;;
41689;SDS011;27372;42.658;23.256;2024-03-02T07:12:20;37.38;;;18.63;;
41689;SDS011;27372;42.658;23.256;2024-03-02T07:14:46;34.15;;;18.17;;
41689;SDS011;27372;42.658;23.256;2024-03-02T07:17:32;30.38;;;16.58;;
41689;SDS011;27372;42.658;23.256;2024-03-02T07:22:24;31.13;;;16.52;;
41689;SDS011;27372;42.658;23.256;2024-03-02T07:24:49;33.22;;;16.55;;
41689;SDS011;27372;42.658;23.256;2024-03-02T07:27:15;35.97;;;17.83;;
41689;SDS011;27372;42.658;23.256;2024-03-02T07:29:42;30.48;;;16.30;;
41689;SDS011;27372;42.658;23.256;2024-03-02T07:32:08;32.72;;;17.48;;
41689;SDS011;27372;42.658;23.256;2024-03-02T07:34:34;32.20;;;16.98;;
41689;SDS011;27372;42.658;23.256;2024-03-02T07:37:00;34.33;;;17.30;;
41689;SDS011;27372;42.658;23.256;2024-03-02T07:39:26;30.75;;;17.77;;
41689;SDS011;27372;42.658;23.256;2024-03-02T07:41:51;35.75;;;17.38;;
41689;SDS011;27372;42.658;23.256;2024-03-02T07:44:17;33.80;;;17.23;;
41689;SDS011;27372;42.658;23.256;2024-03-02T07:46:44;31.45;;;17.20;;
41689;SDS011;27372;42.658;23.256;2024-03-02T07:49:11;29.65;;;16.98;;
41689;SDS011;27372;42.658;23.256;2024-03-02T07:51:38;29.33;;;16.30;;
41689;SDS011;27372;42.658;23.256;2024-03-02T07:54:03;29.02;;;15.38;;
41689;SDS011;27372;42.658;23.256;2024-03-02T07:56:29;29.88;;;16.63;;
41689;SDS011;27372;42.658;23.256;2024-03-02T07:58:54;29.63;;;16.27;;
41689;SDS011;27372;42.658;23.256;2024-03-02T08:01:22;28.95;;;16.67;;
41689;SDS011;27372;42.658;23.256;2024-03-02T08:03:47;31.77;;;17.10;;
41689;SDS011;27372;42.658;23.256;2024-03-02T08:06:15;31.08;;;16.88;;
41689;SDS011;27372;42.658;23.256;2024-03-02T08:08:41;29.92;;;16.80;;
41689;SDS011;27372;42.658;23.256;2024-03-02T08:11:06;33.03;;;18.33;;
41689;SDS011;27372;42.658;23.256;2024-03-02T08:13:32;38.63;;;17.00;;
41689;SDS011;27372;42.658;23.256;2024-03-02T08:15:57;31.52;;;17.08;;
41689;SDS011;27372;42.658;23.256;2024-03-02T08:18:22;30.15;;;16.92;;
41689;SDS011;27372;42.658;23.256;2024-03-02T08:20:48;33.55;;;17.83;;
41689;SDS011;27372;42.658;23.256;2024-03-02T08:23:14;33.95;;;18.45;;
41689;SDS011;27372;42.658;23.256;2024-03-02T08:25:39;34.75;;;18.75;;
41689;SDS011;27372;42.658;23.256;2024-03-02T08:28:04;38.10;;;19.65;;
41689;SDS011;27372;42.658;23.256;2024-03-02T08:30:31;35.20;;;18.60;;
41689;SDS011;27372;42.658;23.256;2024-03-02T08:32:56;34.67;;;18.42;;
41689;SDS011;27372;42.658;23.256;2024-03-02T08:35:21;36.85;;;18.85;;
41689;SDS011;27372;42.658;23.256;2024-03-02T08:37:48;40.40;;;19.27;;
41689;SDS011;27372;42.658;23.256;2024-03-02T08:40:13;33.20;;;18.40;;
41689;SDS011;27372;42.658;23.256;2024-03-02T08:42:39;30.08;;;17.00;;
41689;SDS011;27372;42.658;23.256;2024-03-02T08:45:05;38.10;;;18.83;;
41689;SDS011;27372;42.658;23.256;2024-03-02T08:47:31;38.72;;;19.70;;
41689;SDS011;27372;42.658;23.256;2024-03-02T08:49:57;41.58;;;19.92;;
41689;SDS011;27372;42.658;23.256;2024-03-02T08:52:23;35.22;;;19.02;;
41689;SDS011;27372;42.658;23.256;2024-03-02T08:54:48;33.28;;;17.88;;
41689;SDS011;27372;42.658;23.256;2024-03-02T08:57:14;31.42;;;17.40;;
41689;SDS011;27372;42.658;23.256;2024-03-02T08:59:39;31.70;;;17.88;;
41689;SDS011;27372;42.658;23.256;2024-03-02T09:02:05;35.30;;;18.42;;
41689;SDS011;27372;42.658;23.256;2024-03-02T09:04:30;35.28;;;19.38;;
41689;SDS011;27372;42.658;23.256;2024-03-02T09:06:56;36.30;;;17.67;;
41689;SDS011;27372;42.658;23.256;2024-03-02T09:09:21;37.88;;;17.88;;
41689;SDS011;27372;42.658;23.256;2024-03-02T09:11:46;30.73;;;16.80;;
41689;SDS011;27372;42.658;23.256;2024-03-02T09:14:12;35.45;;;18.75;;
41689;SDS011;27372;42.658;23.256;2024-03-02T09:16:39;34.58;;;18.13;;
41689;SDS011;27372;42.658;23.256;2024-03-02T09:19:05;38.55;;;19.98;;
41689;SDS011;27372;42.658;23.256;2024-03-02T09:21:30;32.08;;;17.73;;
41689;SDS011;27372;42.658;23.256;2024-03-02T09:23:56;32.72;;;17.92;;
41689;SDS011;27372;42.658;23.256;2024-03-02T09:26:21;29.17;;;16.42;;
41689;SDS011;27372;42.658;23.256;2024-03-02T09:28:50;31.27;;;16.87;;
41689;SDS011;27372;42.658;23.256;2024-03-02T09:31:15;32.25;;;17.15;;
41689;SDS011;27372;42.658;23.256;2024-03-02T09:33:41;36.15;;;17.65;;
41689;SDS011;27372;42.658;23.256;2024-03-02T09:36:16;29.27;;;16.70;;
41689;SDS011;27372;42.658;23.256;2024-03-02T09:38:42;30.38;;;16.70;;
41689;SDS011;27372;42.658;23.256;2024-03-02T09:41:07;29.08;;;15.80;;
41689;SDS011;27372;42.658;23.256;2024-03-02T09:43:33;39.25;;;20.17;;
41689;SDS011;27372;42.658;23.256;2024-03-02T09:45:58;31.15;;;17.48;;
41689;SDS011;27372;42.658;23.256;2024-03-02T09:48:24;30.77;;;17.20;;
41689;SDS011;27372;42.658;23.256;2024-03-02T09:50:49;33.53;;;18.88;;
41689;SDS011;27372;42.658;23.256;2024-03-02T09:53:15;36.97;;;19.27;;
41689;SDS011;27372;42.658;23.256;2024-03-02T09:55:45;31.45;;;17.95;;
41689;SDS011;27372;42.658;23.256;2024-03-02T09:58:11;32.17;;;17.70;;
41689;SDS011;27372;42.658;23.256;2024-03-02T10:00:37;30.95;;;17.13;;
41689;SDS011;27372;42.658;23.256;2024-03-02T10:03:02;29.17;;;16.02;;
41689;SDS011;27372;42.658;23.256;2024-03-02T10:05:29;27.00;;;15.98;;
41689;SDS011;27372;42.658;23.256;2024-03-02T10:08:02;30.73;;;16.33;;
41689;SDS011;27372;42.658;23.256;2024-03-02T10:10:37;31.38;;;16.80;;
41689;SDS011;27372;42.658;23.256;2024-03-02T10:13:11;27.30;;;15.60;;
41689;SDS011;27372;42.658;23.256;2024-03-02T10:15:38;27.73;;;16.15;;
41689;SDS011;27372;42.658;23.256;2024-03-02T10:18:08;34.80;;;16.55;;
41689;SDS011;27372;42.658;23.256;2024-03-02T10:20:37;29.77;;;16.85;;
41689;SDS011;27372;42.658;23.256;2024-03-02T10:23:10;29.80;;;17.42;;
41689;SDS011;27372;42.658;23.256;2024-03-02T10:25:40;34.35;;;18.60;;
41689;SDS011;27372;42.658;23.256;2024-03-02T10:28:06;33.42;;;18.60;;
41689;SDS011;27372;42.658;23.256;2024-03-02T10:30:32;33.17;;;18.52;;
41689;SDS011;27372;42.658;23.256;2024-03-02T10:32:58;32.63;;;17.08;;
41689;SDS011;27372;42.658;23.256;2024-03-02T10:35:25;32.72;;;18.63;;
41689;SDS011;27372;42.658;23.256;2024-03-02T10:37:51;30.25;;;16.95;;
41689;SDS011;27372;42.658;23.256;2024-03-02T10:40:18;36.33;;;18.73;;
41689;SDS011;27372;42.658;23.256;2024-03-02T10:42:46;35.25;;;20.02;;
41689;SDS011;27372;42.658;23.256;2024-03-02T10:45:12;35.88;;;20.48;;
41689;SDS011;27372;42.658;23.256;2024-03-02T10:47:41;35.42;;;18.70;;
41689;SDS011;27372;42.658;23.256;2024-03-02T10:50:07;35.05;;;19.58;;
41689;SDS011;27372;42.658;23.256;2024-03-02T10:52:37;36.20;;;19.75;;
41689;SDS011;27372;42.658;23.256;2024-03-02T10:55:04;35.00;;;20.08;;
41689;SDS011;27372;42.658;23.256;2024-03-02T11:00:16;37.63;;;20.40;;
41689;SDS011;27372;42.658;23.256;2024-03-02T11:02:46;35.15;;;20.48;;
41689;SDS011;27372;42.658;23.256;2024-03-02T11:05:17;37.63;;;20.70;;
41689;SDS011;27372;42.658;23.256;2024-03-02T11:07:52;36.90;;;20.90;;
41689;SDS011;27372;42.658;23.256;2024-03-02T11:10:21;38.75;;;21.13;;
41689;SDS011;27372;42.658;23.256;2024-03-02T11:12:50;39.53;;;21.60;;
41689;SDS011;27372;42.658;23.256;2024-03-02T11:18:36;37.10;;;20.35;;
41689;SDS011;27372;42.658;23.256;2024-03-02T11:21:02;39.28;;;21.52;;
41689;SDS011;27372;42.658;23.256;2024-03-02T11:23:32;42.35;;;24.42;;
41689;SDS011;27372;42.658;23.256;2024-03-02T11:28:43;50.90;;;28.73;;
41689;SDS011;27372;42.658;23.256;2024-03-02T11:31:09;47.90;;;27.65;;
41689;SDS011;27372;42.658;23.256;2024-03-02T11:33:34;51.15;;;27.98;;
41689;SDS011;27372;42.658;23.256;2024-03-02T11:36:00;51.50;;;27.45;;
41689;SDS011;27372;42.658;23.256;2024-03-02T11:38:27;49.40;;;26.20;;
41689;SDS011;27372;42.658;23.256;2024-03-02T11:40:53;49.72;;;26.70;;
41689;SDS011;27372;42.658;23.256;2024-03-02T11:43:19;51.75;;;26.33;;
41689;SDS011;27372;42.658;23.256;2024-03-02T11:45:44;47.17;;;26.55;;
41689;SDS011;27372;42.658;23.256;2024-03-02T11:48:11;47.85;;;25.35;;
41689;SDS011;27372;42.658;23.256;2024-03-02T11:50:40;43.75;;;24.25;;
41689;SDS011;27372;42.658;23.256;2024-03-02T11:53:13;44.38;;;24.27;;
41689;SDS011;27372;42.658;23.256;2024-03-02T11:55:39;45.03;;;23.58;;
41689;SDS011;27372;42.658;23.256;2024-03-02T11:58:14;43.08;;;23.60;;
41689;SDS011;27372;42.658;23.256;2024-03-02T12:00:45;42.75;;;22.75;;
41689;SDS011;27372;42.658;23.256;2024-03-02T12:03:12;40.28;;;22.95;;
41689;SDS011;27372;42.658;23.256;2024-03-02T12:05:38;48.92;;;26.17;;
41689;SDS011;27372;42.658;23.256;2024-03-02T12:08:05;53.60;;;27.60;;
41689;SDS011;27372;42.658;23.256;2024-03-02T12:10:34;50.58;;;26.13;;
41689;SDS011;27372;42.658;23.256;2024-03-02T12:13:01;44.70;;;25.10;;
41689;SDS011;27372;42.658;23.256;2024-03-02T12:15:37;40.13;;;23.17;;
41689;SDS011;27372;42.658;23.256;2024-03-02T12:18:03;39.88;;;22.45;;
41689;SDS011;27372;42.658;23.256;2024-03-02T12:20:30;38.85;;;22.88;;
41689;SDS011;27372;42.658;23.256;2024-03-02T12:23:00;42.50;;;22.83;;
41689;SDS011;27372;42.658;23.256;2024-03-02T12:25:27;44.00;;;24.45;;
41689;SDS011;27372;42.658;23.256;2024-03-02T12:27:54;50.15;;;26.45;;
41689;SDS011;27372;42.658;23.256;2024-03-02T12:30:20;41.35;;;23.58;;
41689;SDS011;27372;42.658;23.256;2024-03-02T12:32:47;42.38;;;23.20;;
41689;SDS011;27372;42.658;23.256;2024-03-02T12:35:13;39.83;;;22.55;;
41689;SDS011;27372;42.658;23.256;2024-03-02T12:40:11;37.83;;;21.23;;
41689;SDS011;27372;42.658;23.256;2024-03-02T12:42:38;37.35;;;21.25;;
41689;SDS011;27372;42.658;23.256;2024-03-02T12:45:03;36.63;;;21.00;;
41689;SDS011;27372;42.658;23.256;2024-03-02T12:47:29;38.17;;;21.00;;
41689;SDS011;27372;42.658;23.256;2024-03-02T12:49:55;37.47;;;22.23;;
41689;SDS011;27372;42.658;23.256;2024-03-02T12:52:21;38.72;;;21.77;;
41689;SDS011;27372;42.658;23.256;2024-03-02T12:54:47;35.88;;;20.80;;
41689;SDS011;27372;42.658;23.256;2024-03-02T12:57:17;36.58;;;21.30;;
41689;SDS011;27372;42.658;23.256;2024-03-02T12:59:45;36.75;;;22.27;;
41689;SDS011;27372;42.658;23.256;2024-03-02T13:02:16;40.38;;;22.27;;
41689;SDS011;27372;42.658;23.256;2024-03-02T13:04:43;37.75;;;22.02;;
41689;SDS011;27372;42.658;23.256;2024-03-02T13:07:08;38.58;;;22.00;;
41689;SDS011;27372;42.658;23.256;2024-03-02T13:09:34;40.08;;;21.95;;
41689;SDS011;27372;42.658;23.256;2024-03-02T13:12:00;39.20;;;22.45;;
41689;SDS011;27372;42.658;23.256;2024-03-02T13:14:26;43.10;;;22.58;;
41689;SDS011;27372;42.658;23.256;2024-03-02T13:16:51;39.15;;;23.15;;
41689;SDS011;27372;42.658;23.256;2024-03-02T13:19:17;40.03;;;23.45;;
41689;SDS011;27372;42.658;23.256;2024-03-02T13:21:46;45.03;;;23.80;;
41689;SDS011;27372;42.658;23.256;2024-03-02T13:24:11;37.53;;;22.38;;
41689;SDS011;27372;42.658;23.256;2024-03-02T13:26:37;38.60;;;21.88;;
41689;SDS011;27372;42.658;23.256;2024-03-02T13:29:02;40.38;;;23.48;;
41689;SDS011;27372;42.658;23.256;2024-03-02T13:31:28;41.78;;;22.30;;
41689;SDS011;27372;42.658;23.256;2024-03-02T13:33:53;40.25;;;22.58;;
41689;SDS011;27372;42.658;23.256;2024-03-02T13:36:18;40.42;;;22.98;;
41689;SDS011;27372;42.658;23.256;2024-03-02T13:38:44;42.83;;;23.15;;
41689;SDS011;27372;42.658;23.256;2024-03-02T13:41:09;43.97;;;24.02;;
41689;SDS011;27372;42.658;23.256;2024-03-02T13:43:36;50.13;;;28.02;;
41689;SDS011;27372;42.658;23.256;2024-03-02T13:46:03;45.85;;;26.58;;
41689;SDS011;27372;42.658;23.256;2024-03-02T13:48:29;49.45;;;27.58;;
41689;SDS011;27372;42.658;23.256;2024-03-02T13:50:55;41.38;;;24.02;;
41689;SDS011;27372;42.658;23.256;2024-03-02T13:53:21;43.17;;;23.95;;
41689;SDS011;27372;42.658;23.256;2024-03-02T13:55:46;40.83;;;23.60;;
41689;SDS011;27372;42.658;23.256;2024-03-02T13:58:11;41.80;;;23.85;;
41689;SDS011;27372;42.658;23.256;2024-03-02T14:00:37;41.20;;;23.90;;
41689;SDS011;27372;42.658;23.256;2024-03-02T14:03:04;42.08;;;24.63;;
41689;SDS011;27372;42.658;23.256;2024-03-02T14:05:31;44.03;;;23.95;;
41689;SDS011;27372;42.658;23.256;2024-03-02T14:07:57;40.50;;;23.42;;
41689;SDS011;27372;42.658;23.256;2024-03-02T14:10:22;40.83;;;24.30;;
41689;SDS011;27372;42.658;23.256;2024-03-02T14:12:48;40.33;;;23.45;;
41689;SDS011;27372;42.658;23.256;2024-03-02T14:15:14;42.33;;;24.02;;
41689;SDS011;27372;42.658;23.256;2024-03-02T14:17:40;44.72;;;25.15;;